createdAt,value
2023-05-18T09:29:00.415Z,41.79
2023-05-18T09:31:28.070Z,39.87
2023-05-18T09:33:55.216Z,39.85
2023-05-18T09:36:26.623Z,38.93
2023-05-18T09:38:53.618Z,38.25
2023-05-18T09:41:20.778Z,37.42
2023-05-18T09:43:51.700Z,37.79
2023-05-18T09:46:19.278Z,35.72
2023-05-18T09:48:48.007Z,33.40
2023-05-18T09:51:17.096Z,35.15
2023-05-18T09:53:49.659Z,33.86
2023-05-18T09:56:18.331Z,34.76
2023-05-18T09:58:45.619Z,33.58
2023-05-18T10:01:12.541Z,33.05
2023-05-18T10:03:39.890Z,34.58
2023-05-18T10:06:13.624Z,33.07
2023-05-18T10:08:41.104Z,32.20
2023-05-18T10:11:08.261Z,30.58
2023-05-18T10:13:35.398Z,31.81
2023-05-18T10:16:04.339Z,29.13
2023-05-18T10:18:40.961Z,30.19
2023-05-18T10:23:14.134Z,30.10
2023-05-18T10:25:42.813Z,29.19
2023-05-18T10:28:10.900Z,33.32
2023-05-18T10:30:41.432Z,34.62
2023-05-18T10:33:20.621Z,33.77
2023-05-18T10:35:52.393Z,32.98
2023-05-18T10:38:24.687Z,34.46
2023-05-18T10:40:54.012Z,34.63
2023-05-18T10:43:28.438Z,35.28
2023-05-18T10:46:00.632Z,36.89
2023-05-18T10:48:29.296Z,35.56
2023-05-18T10:50:57.763Z,35.05
2023-05-18T10:53:32.526Z,35.47
2023-05-18T10:56:00.152Z,38.07
2023-05-18T10:58:28.462Z,35.41
2023-05-18T11:00:57.588Z,36.06
2023-05-18T11:03:26.445Z,32.65
2023-05-18T11:06:11.285Z,31.56
2023-05-18T11:08:48.735Z,31.68
2023-05-18T11:11:18.698Z,33.79
2023-05-18T11:13:49.507Z,34.07
2023-05-18T11:16:17.576Z,35.55
2023-05-18T11:18:46.554Z,36.42
2023-05-18T11:21:25.633Z,36.36
2023-05-18T11:24:26.884Z,36.45
2023-05-18T11:26:55.624Z,35.64
2023-05-18T11:29:45.219Z,35.69
2023-05-18T11:32:30.371Z,35.80
2023-05-18T11:34:57.541Z,35.72
2023-05-18T11:37:39.594Z,35.21
2023-05-18T11:40:11.469Z,34.92
2023-05-18T11:42:39.065Z,32.50
2023-05-18T11:45:10.728Z,32.71
2023-05-18T11:47:40.160Z,33.95
2023-05-18T11:50:08.771Z,35.17
2023-05-18T11:52:46.677Z,33.97
2023-05-18T11:55:18.384Z,34.08
2023-05-18T11:57:48.659Z,34.25
2023-05-18T12:00:19.080Z,34.28
2023-05-18T12:02:48.501Z,36.61
2023-05-18T12:05:15.595Z,35.24
2023-05-18T12:07:42.921Z,35.53
2023-05-18T12:10:12.467Z,35.41
2023-05-18T12:12:42.327Z,33.90
2023-05-18T12:15:10.751Z,33.69
2023-05-18T12:17:49.988Z,34.44
2023-05-18T12:20:21.748Z,31.63
2023-05-18T12:22:54.062Z,33.62
2023-05-18T12:25:23.561Z,33.50
2023-05-18T12:27:52.227Z,32.38
2023-05-18T12:30:20.403Z,33.03
2023-05-18T12:32:48.217Z,32.66
2023-05-18T12:35:15.331Z,33.23
2023-05-18T12:37:46.529Z,33.07
2023-05-18T12:40:14.814Z,31.71
2023-05-18T12:42:57.179Z,32.87
2023-05-18T12:45:26.748Z,35.29
2023-05-18T12:47:57.573Z,33.38
2023-05-18T12:50:27.220Z,33.28
2023-05-18T12:52:55.834Z,35.25
2023-05-18T12:55:25.786Z,36.11
2023-05-18T12:58:06.486Z,35.16
2023-05-18T13:00:37.274Z,34.67
2023-05-18T13:03:15.971Z,33.25
2023-05-18T13:05:45.942Z,34.14
2023-05-18T13:08:22.366Z,34.71
2023-05-18T13:11:01.230Z,34.90
2023-05-18T13:13:33.221Z,35.78
2023-05-18T13:16:00.700Z,34.38
2023-05-18T13:18:28.268Z,34.41
2023-05-18T13:20:57.230Z,33.54
2023-05-18T13:23:28.836Z,34.07
2023-05-18T13:25:58.817Z,34.07
2023-05-18T13:28:26.789Z,35.21
2023-05-18T13:30:53.793Z,35.14
2023-05-18T13:33:21.744Z,34.69
2023-05-18T13:35:50.150Z,34.89
2023-05-18T13:38:17.202Z,34.23
2023-05-18T13:40:44.191Z,34.76
2023-05-18T13:43:13.582Z,34.10
2023-05-18T13:45:43.954Z,36.04
2023-05-18T13:48:11.476Z,34.65
2023-05-18T13:50:40.114Z,34.84
2023-05-18T13:53:07.265Z,35.18
2023-05-18T13:55:34.982Z,35.03
2023-05-18T13:58:02.069Z,34.46
2023-05-18T14:00:29.042Z,35.18
2023-05-18T14:02:57.068Z,37.32
2023-05-18T14:05:24.069Z,35.43
2023-05-18T14:07:52.730Z,34.63
2023-05-18T14:10:19.824Z,34.86
2023-05-18T14:12:46.738Z,34.32
2023-05-18T14:15:14.254Z,33.58
2023-05-18T14:17:42.251Z,33.62
2023-05-18T14:20:10.353Z,35.05
2023-05-18T14:22:37.185Z,34.60
2023-05-18T14:25:04.280Z,33.59
2023-05-18T14:27:33.205Z,32.29
2023-05-18T14:30:00.230Z,32.80
2023-05-18T14:32:27.113Z,34.25
2023-05-18T14:34:56.325Z,32.75
2023-05-18T14:37:23.147Z,33.27
2023-05-18T14:39:49.933Z,33.38
2023-05-18T14:42:16.884Z,34.15
2023-05-18T14:44:43.699Z,35.21
2023-05-18T14:47:10.878Z,35.05
2023-05-18T14:49:38.093Z,33.34
2023-05-18T14:52:06.424Z,34.44
2023-05-18T14:54:33.298Z,32.59
2023-05-18T14:57:01.477Z,33.25
2023-05-18T14:59:28.486Z,35.02
2023-05-18T15:01:55.293Z,34.13
2023-05-18T15:04:22.331Z,34.21
2023-05-18T15:06:49.977Z,34.17
2023-05-18T15:09:17.483Z,35.24
2023-05-18T15:11:44.741Z,33.59
2023-05-18T15:14:11.830Z,32.83
2023-05-18T15:16:39.075Z,33.95
2023-05-18T15:19:06.322Z,34.11
2023-05-18T15:21:33.272Z,34.97
2023-05-18T15:24:00.234Z,35.44
2023-05-18T15:26:27.307Z,35.25
2023-05-18T15:28:54.212Z,34.75
2023-05-18T15:31:21.238Z,34.55
2023-05-18T15:33:48.136Z,34.29
2023-05-18T15:36:14.906Z,34.96
2023-05-18T15:38:41.704Z,38.28
2023-05-18T15:41:08.468Z,35.29
2023-05-18T15:43:36.832Z,34.61
2023-05-18T15:46:03.842Z,36.02
2023-05-18T15:48:30.960Z,33.84
2023-05-18T15:50:57.902Z,35.74
2023-05-18T15:53:24.871Z,34.10
2023-05-18T15:55:56.657Z,35.22
2023-05-18T15:58:25.331Z,34.42
2023-05-18T16:00:52.163Z,34.21
2023-05-18T16:03:19.466Z,35.41
2023-05-18T16:05:46.603Z,34.72
2023-05-18T16:08:13.502Z,35.51
2023-05-18T16:10:40.408Z,35.52
2023-05-18T16:13:07.468Z,34.60
2023-05-18T16:15:34.885Z,34.53
2023-05-18T16:18:02.034Z,35.14
2023-05-18T16:20:29.580Z,36.35
2023-05-18T16:22:56.793Z,35.79
2023-05-18T16:25:24.268Z,37.06
2023-05-18T16:27:51.115Z,36.15
2023-05-18T16:30:18.253Z,35.31
2023-05-18T16:32:45.327Z,34.98
2023-05-18T16:35:12.440Z,35.05
2023-05-18T16:37:39.564Z,35.19
2023-05-18T16:40:07.703Z,36.69
2023-05-18T16:42:34.997Z,35.09
2023-05-18T16:45:02.797Z,35.89
2023-05-18T16:47:32.913Z,37.30
2023-05-18T16:50:00.400Z,37.71
2023-05-18T16:52:27.591Z,36.59
2023-05-18T16:54:54.742Z,37.17
2023-05-18T16:57:22.358Z,36.36
2023-05-18T16:59:49.273Z,35.20
2023-05-18T17:02:17.936Z,35.72
2023-05-18T17:04:50.091Z,35.66
2023-05-18T17:07:17.207Z,35.60
2023-05-18T17:09:44.635Z,35.19
2023-05-18T17:12:12.211Z,35.98
2023-05-18T17:14:39.316Z,34.83
2023-05-18T17:17:07.034Z,35.24
2023-05-18T17:19:35.350Z,35.23
2023-05-18T17:22:03.419Z,35.51
2023-05-18T17:24:30.553Z,35.75
2023-05-18T17:26:57.430Z,35.25
2023-05-18T17:29:24.257Z,35.82
2023-05-18T17:31:51.385Z,36.62
2023-05-18T17:34:18.228Z,37.37
2023-05-18T17:36:46.189Z,37.59
2023-05-18T17:39:13.471Z,36.97
2023-05-18T17:41:40.296Z,35.71
2023-05-18T17:44:07.256Z,36.83
2023-05-18T17:46:34.314Z,36.54
2023-05-18T17:49:05.185Z,37.29
2023-05-18T17:51:32.163Z,38.06
2023-05-18T17:53:59.060Z,36.82
2023-05-18T17:56:26.516Z,38.95
2023-05-18T17:58:54.091Z,39.20
2023-05-18T18:01:20.908Z,39.31
2023-05-18T18:03:49.025Z,38.73
2023-05-18T18:06:17.956Z,36.94
2023-05-18T18:08:45.276Z,37.87
2023-05-18T18:11:12.259Z,37.21
2023-05-18T18:13:39.023Z,38.85
2023-05-18T18:16:06.344Z,39.90
2023-05-18T18:18:36.216Z,39.85
2023-05-18T18:21:03.971Z,40.41
2023-05-18T18:23:30.857Z,40.41
2023-05-18T18:25:57.672Z,40.47
2023-05-18T18:28:24.429Z,40.29
2023-05-18T18:30:51.295Z,40.05
2023-05-18T18:33:20.040Z,41.30
2023-05-18T18:35:47.534Z,41.32
2023-05-18T18:38:14.992Z,42.32
2023-05-18T18:40:41.874Z,42.84
2023-05-18T18:43:08.707Z,43.39
2023-05-18T18:45:35.784Z,44.07
2023-05-18T18:48:02.670Z,44.75
2023-05-18T18:50:29.981Z,43.42
2023-05-18T18:52:56.952Z,44.69
2023-05-18T18:55:26.803Z,44.39
2023-05-18T18:57:53.806Z,44.33
2023-05-18T19:00:21.642Z,46.13
2023-05-18T19:02:54.612Z,46.92
2023-05-18T19:05:23.666Z,46.37
2023-05-18T19:07:55.221Z,45.91
2023-05-18T19:10:23.093Z,47.00
2023-05-18T19:12:50.073Z,46.99
2023-05-18T19:15:17.024Z,46.89
2023-05-18T19:17:46.073Z,47.93
2023-05-18T19:20:13.429Z,48.69
2023-05-18T19:22:43.312Z,49.17
2023-05-18T19:25:10.360Z,49.47
2023-05-18T19:27:37.398Z,48.99
2023-05-18T19:30:05.611Z,48.90
2023-05-18T19:32:32.510Z,50.07
2023-05-18T19:34:59.582Z,50.38
2023-05-18T19:37:26.352Z,50.54
2023-05-18T19:39:53.155Z,50.70
2023-05-18T19:42:29.283Z,50.30
2023-05-18T19:44:56.115Z,50.71
2023-05-18T19:47:23.166Z,51.68
2023-05-18T19:49:49.978Z,51.25
2023-05-18T19:52:18.560Z,51.58
2023-05-18T19:54:45.900Z,51.70
2023-05-18T19:57:12.775Z,51.92
2023-05-18T19:59:39.571Z,51.64
2023-05-18T20:02:09.448Z,51.99
2023-05-18T20:04:36.336Z,51.78
2023-05-18T20:07:03.192Z,51.28
2023-05-18T20:09:30.123Z,52.24
2023-05-18T20:11:56.958Z,52.81
2023-05-18T20:14:23.930Z,53.13
2023-05-18T20:16:52.793Z,52.61
2023-05-18T20:19:19.853Z,52.92
2023-05-18T20:21:49.573Z,53.35
2023-05-18T20:24:16.389Z,53.49
2023-05-18T20:26:46.179Z,52.69
2023-05-18T20:29:13.006Z,52.88
2023-05-18T20:31:40.602Z,51.75
2023-05-18T20:34:07.542Z,52.95
2023-05-18T20:36:36.095Z,53.13
2023-05-18T20:39:02.950Z,53.83
2023-05-18T20:41:29.899Z,53.56
2023-05-18T20:43:57.252Z,54.05
2023-05-18T20:46:25.247Z,54.55
2023-05-18T20:48:55.501Z,54.94
2023-05-18T20:51:23.405Z,54.57
2023-05-18T20:53:50.284Z,54.96
2023-05-18T20:56:18.220Z,54.58
2023-05-18T20:58:50.322Z,55.35
2023-05-18T21:01:18.759Z,55.66
2023-05-18T21:03:46.055Z,56.13
2023-05-18T21:06:13.294Z,56.18
2023-05-18T21:08:40.850Z,56.36
2023-05-18T21:11:07.731Z,56.61
2023-05-18T21:13:37.136Z,56.23
2023-05-18T21:16:06.818Z,56.38
2023-05-18T21:18:34.737Z,56.57
2023-05-18T21:21:04.769Z,56.96
2023-05-18T21:23:31.652Z,56.79
2023-05-18T21:25:58.463Z,56.83
2023-05-18T21:28:25.267Z,57.18
2023-05-18T21:30:52.593Z,56.88
2023-05-18T21:33:19.644Z,56.96
2023-05-18T21:35:47.647Z,56.51
2023-05-18T21:38:14.522Z,57.07
2023-05-18T21:40:43.800Z,56.88
2023-05-18T21:43:10.989Z,56.80
2023-05-18T21:45:40.090Z,56.71
2023-05-18T21:48:07.078Z,56.14
2023-05-18T21:50:36.753Z,56.56
2023-05-18T21:53:03.887Z,56.37
2023-05-18T21:55:31.971Z,56.04
2023-05-18T21:57:58.900Z,56.41
2023-05-18T22:00:26.161Z,56.61
2023-05-18T22:02:52.991Z,56.45
2023-05-18T22:05:19.849Z,56.92
2023-05-18T22:07:46.627Z,57.04
2023-05-18T22:10:13.387Z,56.89
2023-05-18T22:12:42.183Z,56.72
2023-05-18T22:15:10.758Z,57.42
2023-05-18T22:17:37.818Z,57.66
2023-05-18T22:20:09.782Z,57.25
2023-05-18T22:22:36.633Z,56.84
2023-05-18T22:25:03.538Z,57.15
2023-05-18T22:27:30.445Z,57.15
2023-05-18T22:29:57.520Z,57.31
2023-05-18T22:32:24.874Z,57.15
2023-05-18T22:34:52.152Z,57.11
2023-05-18T22:37:19.033Z,57.02
2023-05-18T22:39:46.017Z,57.80
2023-05-18T22:42:12.896Z,57.32
2023-05-18T22:44:39.665Z,57.08
2023-05-18T22:47:06.652Z,57.00
2023-05-18T22:49:36.552Z,56.63
2023-05-18T22:52:06.851Z,56.66
2023-05-18T22:54:33.911Z,56.71
2023-05-18T22:57:00.854Z,57.40
2023-05-18T22:59:28.903Z,57.55
2023-05-18T23:01:55.838Z,57.16
2023-05-18T23:04:22.742Z,57.95
2023-05-18T23:06:50.965Z,57.98
2023-05-18T23:09:18.851Z,58.04
2023-05-18T23:11:46.289Z,57.91
2023-05-18T23:14:13.241Z,58.13
2023-05-18T23:16:43.070Z,58.87
2023-05-18T23:19:12.659Z,58.88
2023-05-18T23:21:40.397Z,58.88
2023-05-18T23:24:08.201Z,59.09
2023-05-18T23:26:35.014Z,58.84
2023-05-18T23:29:01.795Z,59.02
2023-05-18T23:31:28.834Z,58.70
2023-05-18T23:33:56.140Z,58.71
2023-05-18T23:36:27.605Z,58.75
2023-05-18T23:39:01.859Z,58.70
2023-05-18T23:41:30.967Z,58.93
2023-05-18T23:43:58.422Z,58.79
2023-05-18T23:46:25.852Z,58.83
2023-05-18T23:48:52.956Z,58.96
2023-05-18T23:51:23.574Z,58.76
2023-05-18T23:53:51.452Z,58.44
2023-05-18T23:56:18.641Z,58.83
2023-05-18T23:58:46.977Z,59.00
